sensor_id;sensor_type;location;lat;lon;timestamp;temperature;humidity
38488;DHT22;57384;51.986;4.458;2023-04-08T00:00:33;10.60;73.70
38488;DHT22;57384;51.986;4.458;2023-04-08T00:03:29;10.60;73.70
38488;DHT22;57384;51.986;4.458;2023-04-08T00:06:20;10.60;73.90
38488;DHT22;57384;51.986;4.458;2023-04-08T00:09:06;10.60;73.80
38488;DHT22;57384;51.986;4.458;2023-04-08T00:11:51;10.60;73.80
38488;DHT22;57384;51.986;4.458;2023-04-08T00:14:38;10.50;73.80
38488;DHT22;57384;51.986;4.458;2023-04-08T00:17:22;10.60;74.00
38488;DHT22;57384;51.986;4.458;2023-04-08T00:20:12;10.60;74.00
38488;DHT22;57384;51.986;4.458;2023-04-08T00:22:59;10.50;74.20
38488;DHT22;57384;51.986;4.458;2023-04-08T00:25:43;10.50;74.10
38488;DHT22;57384;51.986;4.458;2023-04-08T00:28:27;10.50;74.00
38488;DHT22;57384;51.986;4.458;2023-04-08T00:31:11;10.50;74.00
38488;DHT22;57384;51.986;4.458;2023-04-08T00:33:56;10.50;74.00
38488;DHT22;57384;51.986;4.458;2023-04-08T00:36:41;10.50;74.00
38488;DHT22;57384;51.986;4.458;2023-04-08T00:39:25;10.50;74.60
38488;DHT22;57384;51.986;4.458;2023-04-08T00:42:12;10.50;74.10
38488;DHT22;57384;51.986;4.458;2023-04-08T00:44:56;10.50;74.20
38488;DHT22;57384;51.986;4.458;2023-04-08T00:47:40;10.50;74.10
38488;DHT22;57384;51.986;4.458;2023-04-08T00:50:24;10.50;74.20
38488;DHT22;57384;51.986;4.458;2023-04-08T00:53:08;10.50;74.20
38488;DHT22;57384;51.986;4.458;2023-04-08T00:55:52;10.50;74.20
38488;DHT22;57384;51.986;4.458;2023-04-08T00:58:37;10.50;74.30
38488;DHT22;57384;51.986;4.458;2023-04-08T01:01:32;10.50;74.50
38488;DHT22;57384;51.986;4.458;2023-04-08T01:10:12;10.50;74.70
38488;DHT22;57384;51.986;4.458;2023-04-08T01:13:02;10.50;74.70
38488;DHT22;57384;51.986;4.458;2023-04-08T01:15:48;10.50;74.70
38488;DHT22;57384;51.986;4.458;2023-04-08T01:18:34;10.50;74.60
38488;DHT22;57384;51.986;4.458;2023-04-08T01:21:21;10.50;74.70
38488;DHT22;57384;51.986;4.458;2023-04-08T01:24:25;10.50;74.50
38488;DHT22;57384;51.986;4.458;2023-04-08T01:27:12;10.50;74.60
38488;DHT22;57384;51.986;4.458;2023-04-08T01:30:02;10.40;74.50
38488;DHT22;57384;51.986;4.458;2023-04-08T01:32:50;10.50;74.80
38488;DHT22;57384;51.986;4.458;2023-04-08T01:35:38;10.40;74.70
38488;DHT22;57384;51.986;4.458;2023-04-08T01:38:24;10.40;74.90
38488;DHT22;57384;51.986;4.458;2023-04-08T01:41:10;10.40;74.90
38488;DHT22;57384;51.986;4.458;2023-04-08T01:44:08;10.40;74.80
38488;DHT22;57384;51.986;4.458;2023-04-08T01:46:54;10.50;74.90
38488;DHT22;57384;51.986;4.458;2023-04-08T01:50:01;10.40;74.70
38488;DHT22;57384;51.986;4.458;2023-04-08T01:56:02;10.40;74.60
38488;DHT22;57384;51.986;4.458;2023-04-08T01:58:58;10.40;74.60
38488;DHT22;57384;51.986;4.458;2023-04-08T02:01:46;10.40;74.70
38488;DHT22;57384;51.986;4.458;2023-04-08T02:04:33;10.40;74.70
38488;DHT22;57384;51.986;4.458;2023-04-08T02:07:20;10.40;74.80
38488;DHT22;57384;51.986;4.458;2023-04-08T02:10:12;10.40;74.70
38488;DHT22;57384;51.986;4.458;2023-04-08T02:13:00;10.40;74.70
38488;DHT22;57384;51.986;4.458;2023-04-08T02:16:39;10.40;74.50
38488;DHT22;57384;51.986;4.458;2023-04-08T02:19:51;10.40;74.40
38488;DHT22;57384;51.986;4.458;2023-04-08T02:23:11;10.40;74.30
38488;DHT22;57384;51.986;4.458;2023-04-08T02:26:04;10.30;74.20
38488;DHT22;57384;51.986;4.458;2023-04-08T02:29:03;10.30;74.10
38488;DHT22;57384;51.986;4.458;2023-04-08T02:31:55;10.20;74.10
38488;DHT22;57384;51.986;4.458;2023-04-08T02:34:50;10.30;74.10
38488;DHT22;57384;51.986;4.458;2023-04-08T02:37:54;10.30;74.70
38488;DHT22;57384;51.986;4.458;2023-04-08T02:40:39;10.30;74.10
38488;DHT22;57384;51.986;4.458;2023-04-08T02:43:23;10.30;74.10
38488;DHT22;57384;51.986;4.458;2023-04-08T02:46:14;10.20;74.20
38488;DHT22;57384;51.986;4.458;2023-04-08T02:48:58;10.20;74.30
38488;DHT22;57384;51.986;4.458;2023-04-08T02:51:49;10.20;74.30
38488;DHT22;57384;51.986;4.458;2023-04-08T02:54:36;10.20;74.30
38488;DHT22;57384;51.986;4.458;2023-04-08T02:57:20;10.10;74.40
38488;DHT22;57384;51.986;4.458;2023-04-08T03:00:21;10.10;74.10
38488;DHT22;57384;51.986;4.458;2023-04-08T03:03:05;10.10;74.40
38488;DHT22;57384;51.986;4.458;2023-04-08T03:05:52;10.00;74.40
38488;DHT22;57384;51.986;4.458;2023-04-08T03:08:48;10.00;74.50
38488;DHT22;57384;51.986;4.458;2023-04-08T03:11:35;10.00;74.70
38488;DHT22;57384;51.986;4.458;2023-04-08T03:17:26;10.00;74.70
38488;DHT22;57384;51.986;4.458;2023-04-08T03:20:19;10.00;74.70
38488;DHT22;57384;51.986;4.458;2023-04-08T03:23:05;9.90;74.80
38488;DHT22;57384;51.986;4.458;2023-04-08T03:25:52;9.90;74.70
38488;DHT22;57384;51.986;4.458;2023-04-08T03:28:48;10.00;74.90
38488;DHT22;57384;51.986;4.458;2023-04-08T03:31:41;9.90;74.70
38488;DHT22;57384;51.986;4.458;2023-04-08T03:34:44;9.90;74.60
38488;DHT22;57384;51.986;4.458;2023-04-08T03:37:31;9.90;74.60
38488;DHT22;57384;51.986;4.458;2023-04-08T03:40:20;9.90;74.60
38488;DHT22;57384;51.986;4.458;2023-04-08T03:43:10;9.80;74.60
38488;DHT22;57384;51.986;4.458;2023-04-08T03:46:03;9.80;74.80
38488;DHT22;57384;51.986;4.458;2023-04-08T03:48:57;9.90;75.00
38488;DHT22;57384;51.986;4.458;2023-04-08T03:51:43;9.80;75.10
38488;DHT22;57384;51.986;4.458;2023-04-08T03:54:30;9.80;74.90
38488;DHT22;57384;51.986;4.458;2023-04-08T03:57:15;9.80;75.00
38488;DHT22;57384;51.986;4.458;2023-04-08T04:00:07;9.80;74.90
38488;DHT22;57384;51.986;4.458;2023-04-08T04:03:03;9.80;75.00
38488;DHT22;57384;51.986;4.458;2023-04-08T04:05:53;9.80;75.00
38488;DHT22;57384;51.986;4.458;2023-04-08T04:08:37;9.80;75.00
38488;DHT22;57384;51.986;4.458;2023-04-08T04:11:21;9.80;74.90
38488;DHT22;57384;51.986;4.458;2023-04-08T04:14:08;9.80;74.70
38488;DHT22;57384;51.986;4.458;2023-04-08T04:16:59;9.80;74.60
38488;DHT22;57384;51.986;4.458;2023-04-08T04:19:44;9.80;74.50
38488;DHT22;57384;51.986;4.458;2023-04-08T04:22:40;9.80;74.50
38488;DHT22;57384;51.986;4.458;2023-04-08T04:25:39;9.80;75.20
38488;DHT22;57384;51.986;4.458;2023-04-08T04:28:27;9.80;74.60
38488;DHT22;57384;51.986;4.458;2023-04-08T04:31:33;9.80;74.60
38488;DHT22;57384;51.986;4.458;2023-04-08T04:34:20;9.70;74.80
38488;DHT22;57384;51.986;4.458;2023-04-08T04:37:15;9.80;74.80
38488;DHT22;57384;51.986;4.458;2023-04-08T04:40:05;9.70;74.90
38488;DHT22;57384;51.986;4.458;2023-04-08T04:43:08;9.70;75.00
38488;DHT22;57384;51.986;4.458;2023-04-08T04:45:55;9.80;75.40
38488;DHT22;57384;51.986;4.458;2023-04-08T05:11:44;9.70;75.50
38488;DHT22;57384;51.986;4.458;2023-04-08T05:14:29;9.70;75.30
38488;DHT22;57384;51.986;4.458;2023-04-08T05:17:25;9.60;75.40
38488;DHT22;57384;51.986;4.458;2023-04-08T05:20:10;9.70;75.50
38488;DHT22;57384;51.986;4.458;2023-04-08T05:22:54;9.70;75.50
38488;DHT22;57384;51.986;4.458;2023-04-08T05:25:38;9.70;75.60
38488;DHT22;57384;51.986;4.458;2023-04-08T05:28:22;9.70;75.50
38488;DHT22;57384;51.986;4.458;2023-04-08T05:31:06;9.70;75.40
38488;DHT22;57384;51.986;4.458;2023-04-08T05:33:50;9.70;75.30
38488;DHT22;57384;51.986;4.458;2023-04-08T05:36:34;9.70;75.40
38488;DHT22;57384;51.986;4.458;2023-04-08T05:39:19;9.70;75.40
38488;DHT22;57384;51.986;4.458;2023-04-08T05:42:04;9.70;75.90
38488;DHT22;57384;51.986;4.458;2023-04-08T05:44:48;9.70;75.40
38488;DHT22;57384;51.986;4.458;2023-04-08T05:47:32;9.70;75.40
38488;DHT22;57384;51.986;4.458;2023-04-08T05:50:17;9.70;75.40
38488;DHT22;57384;51.986;4.458;2023-04-08T05:53:01;9.70;75.40
38488;DHT22;57384;51.986;4.458;2023-04-08T05:55:45;9.70;75.30
38488;DHT22;57384;51.986;4.458;2023-04-08T05:58:29;9.70;75.20
38488;DHT22;57384;51.986;4.458;2023-04-08T06:01:16;9.70;75.20
38488;DHT22;57384;51.986;4.458;2023-04-08T06:04:00;9.70;75.30
38488;DHT22;57384;51.986;4.458;2023-04-08T06:06:48;9.70;75.30
38488;DHT22;57384;51.986;4.458;2023-04-08T06:09:34;9.80;75.40
38488;DHT22;57384;51.986;4.458;2023-04-08T06:12:27;9.70;75.30
38488;DHT22;57384;51.986;4.458;2023-04-08T06:15:15;9.80;75.40
38488;DHT22;57384;51.986;4.458;2023-04-08T06:18:09;9.80;75.40
38488;DHT22;57384;51.986;4.458;2023-04-08T06:21:22;9.80;75.60
38488;DHT22;57384;51.986;4.458;2023-04-08T06:24:18;9.80;75.60
38488;DHT22;57384;51.986;4.458;2023-04-08T06:27:15;9.70;75.40
38488;DHT22;57384;51.986;4.458;2023-04-08T06:30:02;9.80;75.40
38488;DHT22;57384;51.986;4.458;2023-04-08T06:32:50;9.80;75.30
38488;DHT22;57384;51.986;4.458;2023-04-08T06:36:03;9.80;75.30
38488;DHT22;57384;51.986;4.458;2023-04-08T06:41:58;9.80;75.10
38488;DHT22;57384;51.986;4.458;2023-04-08T06:44:54;9.80;75.00
38488;DHT22;57384;51.986;4.458;2023-04-08T06:47:48;9.80;75.00
38488;DHT22;57384;51.986;4.458;2023-04-08T06:50:45;9.90;75.20
38488;DHT22;57384;51.986;4.458;2023-04-08T06:53:53;9.80;75.20
38488;DHT22;57384;51.986;4.458;2023-04-08T06:56:37;9.90;75.20
38488;DHT22;57384;51.986;4.458;2023-04-08T06:59:29;9.90;75.10
38488;DHT22;57384;51.986;4.458;2023-04-08T07:02:40;9.90;75.10
38488;DHT22;57384;51.986;4.458;2023-04-08T07:05:54;9.90;75.10
38488;DHT22;57384;51.986;4.458;2023-04-08T07:08:50;10.00;75.10
38488;DHT22;57384;51.986;4.458;2023-04-08T07:11:36;10.00;75.10
38488;DHT22;57384;51.986;4.458;2023-04-08T07:14:56;10.00;75.10
38488;DHT22;57384;51.986;4.458;2023-04-08T07:17:41;10.00;75.00
38488;DHT22;57384;51.986;4.458;2023-04-08T07:24:08;10.00;75.00
38488;DHT22;57384;51.986;4.458;2023-04-08T07:34:21;10.10;74.90
38488;DHT22;57384;51.986;4.458;2023-04-08T07:37:27;10.10;74.80
38488;DHT22;57384;51.986;4.458;2023-04-08T07:43:16;10.20;74.60
38488;DHT22;57384;51.986;4.458;2023-04-08T07:46:11;10.30;74.80
38488;DHT22;57384;51.986;4.458;2023-04-08T07:49:45;10.30;74.90
38488;DHT22;57384;51.986;4.458;2023-04-08T07:52:29;10.40;74.80
38488;DHT22;57384;51.986;4.458;2023-04-08T07:55:14;10.50;74.80
38488;DHT22;57384;51.986;4.458;2023-04-08T07:57:58;10.50;74.80
38488;DHT22;57384;51.986;4.458;2023-04-08T08:00:47;10.60;74.80
38488;DHT22;57384;51.986;4.458;2023-04-08T08:03:31;10.60;74.80
38488;DHT22;57384;51.986;4.458;2023-04-08T08:06:15;10.70;74.60
38488;DHT22;57384;51.986;4.458;2023-04-08T08:09:06;10.80;74.70
38488;DHT22;57384;51.986;4.458;2023-04-08T08:11:51;10.80;74.80
38488;DHT22;57384;51.986;4.458;2023-04-08T08:14:37;10.90;74.70
38488;DHT22;57384;51.986;4.458;2023-04-08T08:17:21;11.10;74.70
38488;DHT22;57384;51.986;4.458;2023-04-08T08:20:06;11.20;74.60
38488;DHT22;57384;51.986;4.458;2023-04-08T08:22:50;11.20;74.60
38488;DHT22;57384;51.986;4.458;2023-04-08T08:25:34;11.40;74.60
38488;DHT22;57384;51.986;4.458;2023-04-08T08:28:22;11.50;74.50
38488;DHT22;57384;51.986;4.458;2023-04-08T08:31:06;11.70;74.40
38488;DHT22;57384;51.986;4.458;2023-04-08T08:33:50;11.80;74.10
38488;DHT22;57384;51.986;4.458;2023-04-08T08:36:35;12.00;74.10
38488;DHT22;57384;51.986;4.458;2023-04-08T08:39:19;12.20;73.90
38488;DHT22;57384;51.986;4.458;2023-04-08T08:42:03;12.40;73.80
38488;DHT22;57384;51.986;4.458;2023-04-08T08:44:48;12.60;73.60
38488;DHT22;57384;51.986;4.458;2023-04-08T08:47:32;12.70;73.40
38488;DHT22;57384;51.986;4.458;2023-04-08T08:50:16;12.90;73.30
38488;DHT22;57384;51.986;4.458;2023-04-08T08:53:01;13.10;73.20
38488;DHT22;57384;51.986;4.458;2023-04-08T08:55:45;13.30;73.20
38488;DHT22;57384;51.986;4.458;2023-04-08T08:58:32;13.50;73.00
38488;DHT22;57384;51.986;4.458;2023-04-08T09:04:30;13.90;72.50
38488;DHT22;57384;51.986;4.458;2023-04-08T09:07:47;14.10;72.40
38488;DHT22;57384;51.986;4.458;2023-04-08T09:10:54;14.30;72.50
38488;DHT22;57384;51.986;4.458;2023-04-08T09:14:31;14.50;72.20
38488;DHT22;57384;51.986;4.458;2023-04-08T09:17:02;14.70;72.50
38488;DHT22;57384;51.986;4.458;2023-04-08T09:20:19;14.90;72.10
38488;DHT22;57384;51.986;4.458;2023-04-08T09:23:19;15.20;71.60
38488;DHT22;57384;51.986;4.458;2023-04-08T09:26:23;15.40;70.90
38488;DHT22;57384;51.986;4.458;2023-04-08T09:29:34;15.60;71.30
38488;DHT22;57384;51.986;4.458;2023-04-08T09:32:19;15.80;70.80
38488;DHT22;57384;51.986;4.458;2023-04-08T09:35:41;15.90;70.80
38488;DHT22;57384;51.986;4.458;2023-04-08T09:38:25;16.10;70.30
38488;DHT22;57384;51.986;4.458;2023-04-08T09:41:18;16.40;70.70
38488;DHT22;57384;51.986;4.458;2023-04-08T09:44:08;16.50;70.60
38488;DHT22;57384;51.986;4.458;2023-04-08T09:47:02;16.70;70.60
38488;DHT22;57384;51.986;4.458;2023-04-08T09:49:54;16.80;69.90
38488;DHT22;57384;51.986;4.458;2023-04-08T09:52:44;17.00;70.40
38488;DHT22;57384;51.986;4.458;2023-04-08T09:55:31;17.20;70.10
38488;DHT22;57384;51.986;4.458;2023-04-08T10:01:45;17.50;69.40
38488;DHT22;57384;51.986;4.458;2023-04-08T10:04:34;17.60;69.20
38488;DHT22;57384;51.986;4.458;2023-04-08T10:07:21;17.80;69.60
38488;DHT22;57384;51.986;4.458;2023-04-08T10:10:15;18.00;69.10
38488;DHT22;57384;51.986;4.458;2023-04-08T10:13:00;18.10;68.80
38488;DHT22;57384;51.986;4.458;2023-04-08T10:16:21;18.20;68.50
38488;DHT22;57384;51.986;4.458;2023-04-08T10:19:35;18.40;68.40
38488;DHT22;57384;51.986;4.458;2023-04-08T10:35:35;19.10;67.70
38488;DHT22;57384;51.986;4.458;2023-04-08T10:38:33;19.30;67.10
38488;DHT22;57384;51.986;4.458;2023-04-08T10:51:01;19.80;65.70
38488;DHT22;57384;51.986;4.458;2023-04-08T10:53:49;19.90;64.80
38488;DHT22;57384;51.986;4.458;2023-04-08T10:56:45;20.00;64.80
38488;DHT22;57384;51.986;4.458;2023-04-08T10:59:33;20.10;65.10
38488;DHT22;57384;51.986;4.458;2023-04-08T11:02:20;20.20;63.80
38488;DHT22;57384;51.986;4.458;2023-04-08T11:05:09;20.30;64.60
38488;DHT22;57384;51.986;4.458;2023-04-08T11:08:06;20.40;63.00
38488;DHT22;57384;51.986;4.458;2023-04-08T11:10:54;20.40;62.80
38488;DHT22;57384;51.986;4.458;2023-04-08T11:13:45;20.60;62.50
38488;DHT22;57384;51.986;4.458;2023-04-08T11:16:29;20.70;62.40
38488;DHT22;57384;51.986;4.458;2023-04-08T11:19:13;20.80;62.50
38488;DHT22;57384;51.986;4.458;2023-04-08T11:21:58;20.90;63.20
38488;DHT22;57384;51.986;4.458;2023-04-08T11:24:45;21.00;63.30
38488;DHT22;57384;51.986;4.458;2023-04-08T11:27:30;21.10;61.30
38488;DHT22;57384;51.986;4.458;2023-04-08T11:30:24;21.20;62.40
38488;DHT22;57384;51.986;4.458;2023-04-08T11:33:11;21.40;62.20
38488;DHT22;57384;51.986;4.458;2023-04-08T11:35:56;21.50;61.30
38488;DHT22;57384;51.986;4.458;2023-04-08T11:38:40;21.60;60.80
38488;DHT22;57384;51.986;4.458;2023-04-08T11:41:35;21.80;61.20
38488;DHT22;57384;51.986;4.458;2023-04-08T11:44:19;22.00;60.40
38488;DHT22;57384;51.986;4.458;2023-04-08T11:47:03;22.10;59.00
38488;DHT22;57384;51.986;4.458;2023-04-08T11:49:47;22.20;59.90
38488;DHT22;57384;51.986;4.458;2023-04-08T11:52:48;22.30;58.10
38488;DHT22;57384;51.986;4.458;2023-04-08T11:55:42;22.50;59.50
38488;DHT22;57384;51.986;4.458;2023-04-08T11:58:27;22.60;60.60
38488;DHT22;57384;51.986;4.458;2023-04-08T12:01:14;22.70;60.00
38488;DHT22;57384;51.986;4.458;2023-04-08T12:04:02;22.90;60.20
38488;DHT22;57384;51.986;4.458;2023-04-08T12:09:57;23.20;56.20
38488;DHT22;57384;51.986;4.458;2023-04-08T12:12:41;23.30;57.20
38488;DHT22;57384;51.986;4.458;2023-04-08T12:15:28;23.50;56.70
38488;DHT22;57384;51.986;4.458;2023-04-08T12:18:12;23.60;54.20
38488;DHT22;57384;51.986;4.458;2023-04-08T12:20:57;23.70;54.60
38488;DHT22;57384;51.986;4.458;2023-04-08T12:23:41;23.90;57.00
38488;DHT22;57384;51.986;4.458;2023-04-08T12:26:35;24.10;58.20
38488;DHT22;57384;51.986;4.458;2023-04-08T12:29:19;24.20;57.40
38488;DHT22;57384;51.986;4.458;2023-04-08T12:32:06;24.40;58.20
38488;DHT22;57384;51.986;4.458;2023-04-08T12:34:52;24.60;55.70
38488;DHT22;57384;51.986;4.458;2023-04-08T12:37:57;24.70;57.70
38488;DHT22;57384;51.986;4.458;2023-04-08T12:40:41;24.90;54.40
38488;DHT22;57384;51.986;4.458;2023-04-08T12:43:26;25.00;56.70
38488;DHT22;57384;51.986;4.458;2023-04-08T12:46:10;25.20;54.30
38488;DHT22;57384;51.986;4.458;2023-04-08T12:48:55;25.40;55.10
38488;DHT22;57384;51.986;4.458;2023-04-08T12:51:41;25.50;54.50
38488;DHT22;57384;51.986;4.458;2023-04-08T12:54:27;25.70;56.60
38488;DHT22;57384;51.986;4.458;2023-04-08T12:57:11;25.80;56.40
38488;DHT22;57384;51.986;4.458;2023-04-08T12:59:55;26.00;55.10
38488;DHT22;57384;51.986;4.458;2023-04-08T13:02:39;26.10;51.80
38488;DHT22;57384;51.986;4.458;2023-04-08T13:05:24;26.20;53.00
38488;DHT22;57384;51.986;4.458;2023-04-08T13:08:08;26.30;52.90
38488;DHT22;57384;51.986;4.458;2023-04-08T13:10:56;26.50;53.10
38488;DHT22;57384;51.986;4.458;2023-04-08T13:13:51;26.60;54.10
38488;DHT22;57384;51.986;4.458;2023-04-08T13:16:38;26.70;52.40
38488;DHT22;57384;51.986;4.458;2023-04-08T13:22:55;26.90;49.80
38488;DHT22;57384;51.986;4.458;2023-04-08T13:25:43;27.00;50.90
38488;DHT22;57384;51.986;4.458;2023-04-08T13:28:27;27.10;50.00
38488;DHT22;57384;51.986;4.458;2023-04-08T13:34:27;27.30;51.50
38488;DHT22;57384;51.986;4.458;2023-04-08T13:37:11;27.40;52.10
38488;DHT22;57384;51.986;4.458;2023-04-08T13:43:24;27.40;48.10
38488;DHT22;57384;51.986;4.458;2023-04-08T14:00:10;27.10;47.70
38488;DHT22;57384;51.986;4.458;2023-04-08T14:03:10;26.90;47.60
38488;DHT22;57384;51.986;4.458;2023-04-08T14:05:55;26.80;46.10
38488;DHT22;57384;51.986;4.458;2023-04-08T14:08:42;26.80;46.50
38488;DHT22;57384;51.986;4.458;2023-04-08T14:11:26;26.80;47.10
38488;DHT22;57384;51.986;4.458;2023-04-08T14:14:11;26.80;47.60
38488;DHT22;57384;51.986;4.458;2023-04-08T14:16:58;26.80;47.20
38488;DHT22;57384;51.986;4.458;2023-04-08T14:19:42;26.80;47.20
38488;DHT22;57384;51.986;4.458;2023-04-08T14:22:39;26.80;45.90
38488;DHT22;57384;51.986;4.458;2023-04-08T14:25:27;26.70;46.10
38488;DHT22;57384;51.986;4.458;2023-04-08T14:28:11;26.70;44.80
38488;DHT22;57384;51.986;4.458;2023-04-08T14:30:56;26.70;44.40
38488;DHT22;57384;51.986;4.458;2023-04-08T14:33:41;26.70;43.40
38488;DHT22;57384;51.986;4.458;2023-04-08T14:36:41;26.60;44.60
38488;DHT22;57384;51.986;4.458;2023-04-08T14:39:31;26.40;43.60
38488;DHT22;57384;51.986;4.458;2023-04-08T14:42:16;26.30;43.10
38488;DHT22;57384;51.986;4.458;2023-04-08T14:45:03;26.10;42.00
38488;DHT22;57384;51.986;4.458;2023-04-08T14:51:03;25.80;43.00
38488;DHT22;57384;51.986;4.458;2023-04-08T14:53:48;25.50;42.30
38488;DHT22;57384;51.986;4.458;2023-04-08T14:56:32;25.40;42.00
38488;DHT22;57384;51.986;4.458;2023-04-08T14:59:19;25.20;42.20
38488;DHT22;57384;51.986;4.458;2023-04-08T15:02:03;25.10;42.90
38488;DHT22;57384;51.986;4.458;2023-04-08T15:04:48;24.90;42.40
38488;DHT22;57384;51.986;4.458;2023-04-08T15:07:54;24.80;43.00
38488;DHT22;57384;51.986;4.458;2023-04-08T15:11:00;24.60;42.60
38488;DHT22;57384;51.986;4.458;2023-04-08T15:14:04;24.40;44.30
38488;DHT22;57384;51.986;4.458;2023-04-08T15:27:54;23.70;43.80
38488;DHT22;57384;51.986;4.458;2023-04-08T15:31:40;23.50;43.60
38488;DHT22;57384;51.986;4.458;2023-04-08T16:01:50;21.70;44.90
38488;DHT22;57384;51.986;4.458;2023-04-08T16:11:43;21.10;45.40
38488;DHT22;57384;51.986;4.458;2023-04-08T16:14:35;21.00;46.20
38488;DHT22;57384;51.986;4.458;2023-04-08T16:17:31;20.80;45.40
38488;DHT22;57384;51.986;4.458;2023-04-08T16:20:19;20.70;45.90
38488;DHT22;57384;51.986;4.458;2023-04-08T16:23:06;20.60;45.90
38488;DHT22;57384;51.986;4.458;2023-04-08T16:25:51;20.40;45.90
38488;DHT22;57384;51.986;4.458;2023-04-08T16:28:36;20.30;45.20
38488;DHT22;57384;51.986;4.458;2023-04-08T16:31:34;20.20;45.60
38488;DHT22;57384;51.986;4.458;2023-04-08T16:34:18;20.00;45.50
38488;DHT22;57384;51.986;4.458;2023-04-08T16:37:05;19.90;45.90
38488;DHT22;57384;51.986;4.458;2023-04-08T16:39:49;19.80;46.60
38488;DHT22;57384;51.986;4.458;2023-04-08T16:42:33;19.70;46.90
38488;DHT22;57384;51.986;4.458;2023-04-08T16:45:17;19.50;47.30
38488;DHT22;57384;51.986;4.458;2023-04-08T16:48:01;19.40;47.00
38488;DHT22;57384;51.986;4.458;2023-04-08T16:50:49;19.30;47.20
38488;DHT22;57384;51.986;4.458;2023-04-08T16:53:47;19.20;47.90
38488;DHT22;57384;51.986;4.458;2023-04-08T16:56:37;19.10;47.70
38488;DHT22;57384;51.986;4.458;2023-04-08T16:59:28;18.90;48.40
38488;DHT22;57384;51.986;4.458;2023-04-08T17:02:16;18.80;48.40
38488;DHT22;57384;51.986;4.458;2023-04-08T17:05:01;18.70;48.20
38488;DHT22;57384;51.986;4.458;2023-04-08T17:07:51;18.50;48.10
38488;DHT22;57384;51.986;4.458;2023-04-08T17:10:36;18.50;48.50
38488;DHT22;57384;51.986;4.458;2023-04-08T17:13:20;18.30;48.90
38488;DHT22;57384;51.986;4.458;2023-04-08T17:16:16;18.20;49.10
38488;DHT22;57384;51.986;4.458;2023-04-08T17:19:01;18.10;48.90
38488;DHT22;57384;51.986;4.458;2023-04-08T17:21:45;18.00;49.60
38488;DHT22;57384;51.986;4.458;2023-04-08T17:24:31;17.80;49.60
38488;DHT22;57384;51.986;4.458;2023-04-08T17:27:16;17.80;49.20
38488;DHT22;57384;51.986;4.458;2023-04-08T17:30:01;17.60;49.60
38488;DHT22;57384;51.986;4.458;2023-04-08T17:32:55;17.50;49.90
38488;DHT22;57384;51.986;4.458;2023-04-08T17:35:39;17.40;50.00
38488;DHT22;57384;51.986;4.458;2023-04-08T17:38:45;17.30;50.20
38488;DHT22;57384;51.986;4.458;2023-04-08T17:41:38;17.20;50.10
38488;DHT22;57384;51.986;4.458;2023-04-08T17:44:32;17.10;50.80
38488;DHT22;57384;51.986;4.458;2023-04-08T17:51:08;16.90;50.70
38488;DHT22;57384;51.986;4.458;2023-04-08T17:54:17;16.80;50.70
38488;DHT22;57384;51.986;4.458;2023-04-08T18:00:46;16.50;50.90
38488;DHT22;57384;51.986;4.458;2023-04-08T18:03:36;16.30;50.70
38488;DHT22;57384;51.986;4.458;2023-04-08T18:06:26;16.20;50.50
38488;DHT22;57384;51.986;4.458;2023-04-08T18:09:14;16.10;50.90
38488;DHT22;57384;51.986;4.458;2023-04-08T18:12:01;16.00;50.80
38488;DHT22;57384;51.986;4.458;2023-04-08T18:15:18;15.90;51.10
38488;DHT22;57384;51.986;4.458;2023-04-08T18:18:40;15.80;51.20
38488;DHT22;57384;51.986;4.458;2023-04-08T18:21:25;15.70;51.00
38488;DHT22;57384;51.986;4.458;2023-04-08T18:24:45;15.60;51.30
38488;DHT22;57384;51.986;4.458;2023-04-08T18:27:37;15.50;51.30
38488;DHT22;57384;51.986;4.458;2023-04-08T18:30:38;15.30;51.30
38488;DHT22;57384;51.986;4.458;2023-04-08T18:33:38;15.20;51.40
38488;DHT22;57384;51.986;4.458;2023-04-08T18:36:40;15.10;51.70
38488;DHT22;57384;51.986;4.458;2023-04-08T18:39:36;15.10;51.60
38488;DHT22;57384;51.986;4.458;2023-04-08T18:42:38;14.90;51.90
38488;DHT22;57384;51.986;4.458;2023-04-08T18:45:42;14.90;52.00
38488;DHT22;57384;51.986;4.458;2023-04-08T18:48:29;14.80;52.20
38488;DHT22;57384;51.986;4.458;2023-04-08T18:51:20;14.60;52.10
38488;DHT22;57384;51.986;4.458;2023-04-08T18:54:04;14.60;52.20
38488;DHT22;57384;51.986;4.458;2023-04-08T18:56:52;14.50;52.40
38488;DHT22;57384;51.986;4.458;2023-04-08T18:59:36;14.40;52.40
38488;DHT22;57384;51.986;4.458;2023-04-08T19:02:20;14.30;52.60
38488;DHT22;57384;51.986;4.458;2023-04-08T19:05:10;14.20;52.80
38488;DHT22;57384;51.986;4.458;2023-04-08T19:08:01;14.10;52.80
38488;DHT22;57384;51.986;4.458;2023-04-08T19:10:59;14.00;53.00
38488;DHT22;57384;51.986;4.458;2023-04-08T19:14:10;14.00;53.20
38488;DHT22;57384;51.986;4.458;2023-04-08T19:17:07;13.90;53.30
38488;DHT22;57384;51.986;4.458;2023-04-08T19:19:52;13.80;53.50
38488;DHT22;57384;51.986;4.458;2023-04-08T19:22:45;13.70;53.60
38488;DHT22;57384;51.986;4.458;2023-04-08T19:25:35;13.70;53.90
38488;DHT22;57384;51.986;4.458;2023-04-08T19:28:33;13.60;54.00
38488;DHT22;57384;51.986;4.458;2023-04-08T19:31:18;13.50;54.20
38488;DHT22;57384;51.986;4.458;2023-04-08T19:34:05;13.40;54.90
38488;DHT22;57384;51.986;4.458;2023-04-08T19:37:10;13.40;54.60
38488;DHT22;57384;51.986;4.458;2023-04-08T19:40:13;13.30;54.80
38488;DHT22;57384;51.986;4.458;2023-04-08T19:43:00;13.20;55.10
38488;DHT22;57384;51.986;4.458;2023-04-08T19:45:59;13.20;55.30
38488;DHT22;57384;51.986;4.458;2023-04-08T20:31:51;12.20;57.70
38488;DHT22;57384;51.986;4.458;2023-04-08T20:34:35;12.10;57.60
38488;DHT22;57384;51.986;4.458;2023-04-08T20:37:19;12.10;57.90
38488;DHT22;57384;51.986;4.458;2023-04-08T20:40:31;12.10;58.70
38488;DHT22;57384;51.986;4.458;2023-04-08T20:43:17;12.10;58.40
38488;DHT22;57384;51.986;4.458;2023-04-08T20:46:12;12.00;58.30
38488;DHT22;57384;51.986;4.458;2023-04-08T20:48:59;11.90;58.00
38488;DHT22;57384;51.986;4.458;2023-04-08T20:51:46;11.90;58.40
38488;DHT22;57384;51.986;4.458;2023-04-08T20:54:36;11.90;58.60
38488;DHT22;57384;51.986;4.458;2023-04-08T20:57:20;11.80;58.70
38488;DHT22;57384;51.986;4.458;2023-04-08T21:00:05;11.80;58.90
38488;DHT22;57384;51.986;4.458;2023-04-08T21:02:53;11.70;58.90
38488;DHT22;57384;51.986;4.458;2023-04-08T21:05:39;11.70;59.30
38488;DHT22;57384;51.986;4.458;2023-04-08T21:08:24;11.60;58.80
38488;DHT22;57384;51.986;4.458;2023-04-08T21:11:11;11.60;58.90
38488;DHT22;57384;51.986;4.458;2023-04-08T21:13:55;11.60;59.30
38488;DHT22;57384;51.986;4.458;2023-04-08T21:16:55;11.50;59.00
38488;DHT22;57384;51.986;4.458;2023-04-08T21:19:44;11.50;59.20
38488;DHT22;57384;51.986;4.458;2023-04-08T21:22:37;11.40;59.50
38488;DHT22;57384;51.986;4.458;2023-04-08T21:25:21;11.40;59.80
38488;DHT22;57384;51.986;4.458;2023-04-08T21:28:12;11.40;59.70